createdAt,value
2022-09-02T00:02:01.998Z,65.68
2022-09-02T00:04:29.001Z,66.14
2022-09-02T00:06:55.765Z,65.77
2022-09-02T00:09:25.101Z,65.76
2022-09-02T00:11:53.267Z,65.82
2022-09-02T00:14:24.279Z,65.83
2022-09-02T00:16:52.444Z,65.86
2022-09-02T00:19:22.179Z,65.71
2022-09-02T00:21:49.251Z,65.60
2022-09-02T00:24:16.271Z,65.57
2022-09-02T00:26:44.219Z,65.90
2022-09-02T00:29:11.492Z,65.79
2022-09-02T00:31:38.544Z,65.79
2022-09-02T00:34:05.803Z,65.88
2022-09-02T00:36:33.470Z,66.06
2022-09-02T00:39:00.215Z,65.92
2022-09-02T00:41:29.080Z,66.23
2022-09-02T00:44:01.554Z,65.93
2022-09-02T00:46:30.585Z,66.07
2022-09-02T00:49:01.382Z,66.13
2022-09-02T00:51:32.262Z,65.86
2022-09-02T00:53:59.435Z,66.09
2022-09-02T00:56:28.596Z,66.00
2022-09-02T00:58:55.979Z,66.18
2022-09-02T01:01:23.051Z,66.04
2022-09-02T01:03:50.618Z,66.43
2022-09-02T01:06:22.028Z,66.08
2022-09-02T01:08:54.428Z,66.15
2022-09-02T01:11:21.569Z,65.94
2022-09-02T01:13:48.377Z,65.71
2022-09-02T01:16:28.275Z,65.78
2022-09-02T01:18:56.787Z,65.91
2022-09-02T01:21:24.055Z,65.93
2022-09-02T01:23:51.721Z,65.62
2022-09-02T01:26:18.587Z,65.83
2022-09-02T01:28:45.417Z,65.64
2022-09-02T01:31:12.681Z,65.84
2022-09-02T01:33:39.746Z,65.83
2022-09-02T01:36:06.649Z,65.85
2022-09-02T01:38:33.413Z,65.88
2022-09-02T01:41:00.136Z,66.09
2022-09-02T01:43:28.107Z,66.50
2022-09-02T01:45:56.594Z,66.24
2022-09-02T01:48:26.160Z,66.19
2022-09-02T01:50:57.263Z,66.15
2022-09-02T01:53:24.069Z,65.92
2022-09-02T01:55:52.643Z,65.60
2022-09-02T01:58:19.792Z,66.08
2022-09-02T02:00:47.021Z,66.02
2022-09-02T02:03:14.371Z,65.89
2022-09-02T02:05:41.521Z,65.54
2022-09-02T02:08:08.352Z,65.47
2022-09-02T02:10:35.465Z,65.54
2022-09-02T02:13:02.666Z,65.21
2022-09-02T02:17:58.394Z,65.22
2022-09-02T02:20:27.208Z,65.08
2022-09-02T02:22:54.159Z,64.92
2022-09-02T02:25:21.135Z,64.88
2022-09-02T02:27:52.185Z,65.25
2022-09-02T02:30:21.750Z,64.48
2022-09-02T02:32:48.670Z,64.84
2022-09-02T02:35:19.289Z,64.53
2022-09-02T02:37:49.388Z,64.00
2022-09-02T02:40:19.712Z,63.99
2022-09-02T02:42:47.877Z,63.93
2022-09-02T02:45:15.468Z,63.96
2022-09-02T02:47:46.244Z,63.92
2022-09-02T02:50:16.724Z,63.84
2022-09-02T02:52:43.835Z,63.79
2022-09-02T02:55:12.525Z,63.98
2022-09-02T02:57:40.711Z,63.72
2022-09-02T03:00:28.822Z,63.93
2022-09-02T03:03:07.544Z,63.87
2022-09-02T03:05:35.958Z,63.67
2022-09-02T03:08:05.609Z,63.70
2022-09-02T03:10:33.857Z,63.74
2022-09-02T03:13:01.333Z,63.69
2022-09-02T03:15:28.612Z,63.94
2022-09-02T03:17:57.213Z,64.31
2022-09-02T03:20:24.848Z,64.15
2022-09-02T03:22:57.823Z,64.27
2022-09-02T03:25:26.722Z,63.85
2022-09-02T03:27:56.058Z,64.09
2022-09-02T03:30:29.886Z,64.21
2022-09-02T03:33:03.785Z,64.60
2022-09-02T03:35:32.930Z,64.78
2022-09-02T03:38:01.037Z,64.64
2022-09-02T03:40:29.657Z,64.81
2022-09-02T03:43:00.179Z,64.96
2022-09-02T03:45:29.055Z,64.94
2022-09-02T03:47:56.359Z,65.13
2022-09-02T03:50:30.058Z,64.97
2022-09-02T03:52:57.816Z,65.18
2022-09-02T03:55:25.334Z,65.54
2022-09-02T03:57:52.590Z,65.66
2022-09-02T04:00:29.987Z,65.67
2022-09-02T04:03:01.628Z,65.83
2022-09-02T04:05:29.380Z,66.01
2022-09-02T04:07:57.990Z,65.73
2022-09-02T04:10:25.590Z,65.66
2022-09-02T04:12:53.019Z,65.90
2022-09-02T04:15:20.969Z,66.08
2022-09-02T04:17:50.270Z,66.42
2022-09-02T04:20:19.685Z,66.61
2022-09-02T04:22:46.464Z,66.64
2022-09-02T04:25:13.420Z,66.77
2022-09-02T04:27:40.411Z,66.83
2022-09-02T04:30:09.377Z,66.82
2022-09-02T04:32:40.921Z,67.01
2022-09-02T04:35:09.878Z,67.33
2022-09-02T04:37:38.506Z,67.41
2022-09-02T04:40:05.626Z,67.42
2022-09-02T04:42:34.311Z,67.51
2022-09-02T04:45:01.266Z,67.63
2022-09-02T04:47:29.007Z,67.61
2022-09-02T04:49:56.475Z,67.89
2022-09-02T04:52:24.028Z,68.15
2022-09-02T04:54:51.132Z,68.14
2022-09-02T04:57:18.094Z,67.96
2022-09-02T04:59:45.164Z,68.23
2022-09-02T05:02:12.247Z,68.22
2022-09-02T05:04:40.314Z,68.60
2022-09-02T05:07:14.260Z,68.81
2022-09-02T05:09:44.817Z,68.63
2022-09-02T05:12:11.746Z,68.84
2022-09-02T05:14:49.031Z,68.89
2022-09-02T05:17:17.852Z,69.41
2022-09-02T05:19:45.724Z,69.55
2022-09-02T05:22:15.049Z,70.12
2022-09-02T05:24:43.192Z,70.15
2022-09-02T05:27:15.546Z,70.56
2022-09-02T05:29:45.305Z,70.55
2022-09-02T05:32:13.264Z,70.64
2022-09-02T05:34:40.185Z,70.89
2022-09-02T05:37:07.130Z,70.59
2022-09-02T05:39:35.434Z,70.76
2022-09-02T05:42:05.050Z,70.35
2022-09-02T05:44:33.156Z,69.85
2022-09-02T05:47:02.489Z,68.91
2022-09-02T05:49:29.353Z,69.06
2022-09-02T05:52:01.374Z,68.88
2022-09-02T05:54:35.551Z,67.92
2022-09-02T05:57:11.712Z,67.54
2022-09-02T05:59:43.487Z,67.68
2022-09-02T06:02:16.236Z,67.03
2022-09-02T06:04:48.632Z,67.28
2022-09-02T06:07:17.480Z,66.46
2022-09-02T06:09:47.233Z,66.21
2022-09-02T06:12:17.508Z,65.14
2022-09-02T06:14:44.758Z,65.08
2022-09-02T06:17:11.534Z,63.90
2022-09-02T06:19:45.583Z,63.46
2022-09-02T06:22:13.069Z,62.77
2022-09-02T06:24:41.773Z,62.52
2022-09-02T06:27:13.698Z,63.23
2022-09-02T06:29:46.143Z,63.07
2022-09-02T06:32:20.527Z,61.95
2022-09-02T06:34:49.243Z,62.20
2022-09-02T06:37:16.175Z,62.25
2022-09-02T06:39:44.962Z,61.68
2022-09-02T06:42:16.854Z,61.30
2022-09-02T06:45:06.953Z,60.16
2022-09-02T06:47:34.173Z,61.28
2022-09-02T06:50:01.301Z,60.87
2022-09-02T06:52:28.986Z,60.21
2022-09-02T06:54:56.191Z,60.11
2022-09-02T06:57:31.404Z,60.15
2022-09-02T07:00:08.295Z,60.37
2022-09-02T07:02:35.696Z,59.90
2022-09-02T07:05:15.647Z,59.44
2022-09-02T07:07:48.296Z,59.46
2022-09-02T07:10:16.102Z,59.64
2022-09-02T07:12:48.664Z,58.88
2022-09-02T07:15:17.172Z,58.59
2022-09-02T07:17:44.341Z,59.70
2022-09-02T07:20:26.795Z,57.96
2022-09-02T07:22:58.068Z,56.77
2022-09-02T07:25:27.573Z,56.99
2022-09-02T07:27:54.779Z,55.55
2022-09-02T07:30:22.423Z,55.05
2022-09-02T07:32:54.929Z,55.26
2022-09-02T07:35:23.725Z,54.10
2022-09-02T07:37:52.714Z,53.71
2022-09-02T07:40:21.417Z,52.44
2022-09-02T07:42:48.463Z,51.70
2022-09-02T07:45:16.543Z,51.78
2022-09-02T07:47:45.216Z,51.57
2022-09-02T07:50:18.828Z,48.65
2022-09-02T07:52:56.012Z,48.25
2022-09-02T07:55:24.237Z,47.03
2022-09-02T07:57:52.411Z,47.24
2022-09-02T08:00:20.677Z,46.81
2022-09-02T08:02:50.432Z,45.66
2022-09-02T08:05:22.963Z,45.20
2022-09-02T08:07:49.913Z,45.27
2022-09-02T08:10:17.425Z,44.86
2022-09-02T08:12:46.547Z,44.38
2022-09-02T08:15:16.332Z,44.89
2022-09-02T08:17:44.423Z,43.79
2022-09-02T08:20:12.879Z,43.58
2022-09-02T08:22:40.323Z,42.44
2022-09-02T08:25:08.301Z,42.02
2022-09-02T08:27:35.839Z,41.52
2022-09-02T08:30:02.749Z,41.00
2022-09-02T08:32:29.704Z,39.88
2022-09-02T08:34:56.460Z,39.56
2022-09-02T08:37:24.191Z,39.73
2022-09-02T08:39:50.915Z,39.43
2022-09-02T08:42:23.645Z,40.91
2022-09-02T08:45:00.012Z,39.30
2022-09-02T08:47:30.048Z,38.23
2022-09-02T08:50:00.841Z,38.05
2022-09-02T08:52:36.091Z,37.71
2022-09-02T08:55:03.352Z,36.94
2022-09-02T08:57:31.213Z,36.90
2022-09-02T09:00:01.176Z,36.72
2022-09-02T09:02:47.367Z,37.50
2022-09-02T09:05:31.231Z,36.28
2022-09-02T09:08:09.618Z,37.38
2022-09-02T09:11:10.767Z,37.76
2022-09-02T09:13:56.233Z,37.39
2022-09-02T09:16:48.531Z,36.48
2022-09-02T09:19:18.293Z,35.82
2022-09-02T09:21:45.176Z,35.97
2022-09-02T09:24:24.394Z,34.30
2022-09-02T09:26:51.150Z,33.06
2022-09-02T09:29:17.862Z,33.39
2022-09-02T09:31:46.011Z,34.12
2022-09-02T09:34:14.377Z,33.05
2022-09-02T09:36:41.080Z,33.50
2022-09-02T09:39:30.632Z,32.29
2022-09-02T09:42:03.488Z,33.11
2022-09-02T09:44:41.017Z,32.90
2022-09-02T09:47:19.852Z,32.12
2022-09-02T09:49:51.596Z,32.54
2022-09-02T09:52:27.058Z,33.66
2022-09-02T09:55:24.337Z,32.57
2022-09-02T09:58:08.565Z,32.57
2022-09-02T10:00:35.472Z,34.56
2022-09-02T10:03:05.402Z,36.48
2022-09-02T10:05:40.060Z,37.73
2022-09-02T10:08:21.003Z,39.45
2022-09-02T10:11:00.220Z,35.63
2022-09-02T10:13:37.526Z,35.87
2022-09-02T10:16:42.513Z,34.16
2022-09-02T10:19:27.585Z,32.14
2022-09-02T10:21:59.422Z,31.76
2022-09-02T10:24:32.156Z,31.43
2022-09-02T10:27:00.629Z,32.03
2022-09-02T10:29:39.821Z,32.13
2022-09-02T10:32:12.736Z,32.60
2022-09-02T10:35:13.287Z,34.21
2022-09-02T10:38:21.954Z,32.46
2022-09-02T10:40:54.277Z,30.01
2022-09-02T10:43:36.083Z,29.27
2022-09-02T10:46:07.907Z,29.93
2022-09-02T10:49:11.981Z,30.69
2022-09-02T10:51:47.724Z,28.91
2022-09-02T10:54:20.032Z,27.38
2022-09-02T10:57:28.967Z,28.45
2022-09-02T11:00:05.038Z,30.21
2022-09-02T11:02:38.223Z,30.64
2022-09-02T11:05:21.442Z,31.07
2022-09-02T11:08:02.782Z,31.56
2022-09-02T11:10:34.514Z,33.81
2022-09-02T11:13:05.382Z,33.23
2022-09-02T11:15:45.537Z,33.71
2022-09-02T11:18:26.701Z,35.46
2022-09-02T11:21:04.948Z,31.50
2022-09-02T11:23:51.945Z,29.50
2022-09-02T11:26:24.584Z,28.10
2022-09-02T11:29:01.335Z,27.82
2022-09-02T11:31:50.178Z,27.84
2022-09-02T11:34:22.875Z,26.63
2022-09-02T11:36:49.863Z,26.52
2022-09-02T11:39:36.323Z,27.35
2022-09-02T11:42:21.268Z,28.14
2022-09-02T11:45:10.445Z,29.46
2022-09-02T11:48:01.271Z,30.20
2022-09-02T11:50:39.493Z,28.87
2022-09-02T11:53:28.613Z,28.85
2022-09-02T11:55:58.644Z,31.05
2022-09-02T11:58:39.008Z,32.43
2022-09-02T12:01:06.918Z,31.29
2022-09-02T12:04:15.839Z,29.32
2022-09-02T12:06:31.585Z,29.10
2022-09-02T12:09:03.704Z,24.41
2022-09-02T12:11:40.016Z,23.05
2022-09-02T12:14:10.186Z,22.17
2022-09-02T12:16:41.678Z,21.73
2022-09-02T12:19:11.864Z,21.54
2022-09-02T12:22:16.565Z,19.62
2022-09-02T12:24:56.663Z,19.45
2022-09-02T12:27:36.824Z,21.33
2022-09-02T12:30:07.340Z,22.70
2022-09-02T12:32:46.421Z,24.21
2022-09-02T12:35:35.419Z,24.86
2022-09-02T12:38:09.932Z,26.35
2022-09-02T12:40:42.226Z,25.99
2022-09-02T12:43:27.171Z,26.43
2022-09-02T12:45:57.828Z,25.05
2022-09-02T12:48:30.382Z,26.19
2022-09-02T12:51:05.245Z,26.94
2022-09-02T12:53:35.002Z,27.52
2022-09-02T12:56:27.751Z,26.99
2022-09-02T12:58:58.941Z,26.83
2022-09-02T13:01:40.408Z,27.62
2022-09-02T13:04:13.226Z,27.61
2022-09-02T13:06:58.486Z,28.51
2022-09-02T13:09:41.586Z,26.34
2022-09-02T13:12:54.723Z,27.68
2022-09-02T13:15:26.289Z,25.93
2022-09-02T13:18:09.216Z,25.54
2022-09-02T13:21:05.363Z,24.34
2022-09-02T13:23:54.232Z,24.21
2022-09-02T13:26:49.386Z,23.09
2022-09-02T13:29:54.058Z,24.62
2022-09-02T13:32:20.689Z,25.08
2022-09-02T13:34:49.283Z,26.50
2022-09-02T13:37:36.502Z,27.83
2022-09-02T13:40:08.225Z,28.62
2022-09-02T13:42:34.959Z,29.03
2022-09-02T13:45:11.350Z,30.48
2022-09-02T13:47:38.147Z,30.75
2022-09-02T13:50:06.540Z,30.29
2022-09-02T13:53:17.734Z,30.90
2022-09-02T13:55:20.965Z,32.22
2022-09-02T13:57:57.918Z,30.81
2022-09-02T14:00:32.658Z,31.63
2022-09-02T14:03:03.173Z,31.70
2022-09-02T14:05:30.899Z,29.69
2022-09-02T14:08:00.232Z,28.84
2022-09-02T14:10:28.392Z,29.99
2022-09-02T14:12:58.587Z,29.97
2022-09-02T14:15:27.595Z,31.39
2022-09-02T14:18:22.688Z,33.83
2022-09-02T14:21:09.774Z,33.04
2022-09-02T14:23:38.999Z,32.14
2022-09-02T14:26:07.195Z,32.35
2022-09-02T14:28:35.069Z,31.98
2022-09-02T14:31:06.732Z,32.44
2022-09-02T14:33:36.583Z,32.48
2022-09-02T14:36:15.670Z,31.18
2022-09-02T14:38:46.353Z,30.91
2022-09-02T14:41:24.809Z,31.39
2022-09-02T14:43:57.294Z,30.98
2022-09-02T14:46:33.621Z,30.56
2022-09-02T14:49:06.217Z,31.33
2022-09-02T14:51:36.077Z,31.71
2022-09-02T14:54:03.451Z,33.05
2022-09-02T14:56:51.421Z,30.92
2022-09-02T14:59:18.870Z,31.12
2022-09-02T15:01:51.646Z,31.04
2022-09-02T15:04:19.639Z,31.20
2022-09-02T15:06:47.030Z,31.35
2022-09-02T15:09:16.459Z,31.62
2022-09-02T15:11:46.987Z,32.81
2022-09-02T15:14:14.036Z,32.57
2022-09-02T15:16:41.345Z,32.64
2022-09-02T15:19:08.189Z,32.84
2022-09-02T15:21:34.966Z,33.32
2022-09-02T15:24:01.897Z,34.82
2022-09-02T15:26:28.611Z,32.17
2022-09-02T15:28:55.482Z,32.63
2022-09-02T15:31:22.355Z,34.59
2022-09-02T15:33:51.776Z,35.23
2022-09-02T15:36:19.377Z,34.14
2022-09-02T15:38:46.090Z,32.86
2022-09-02T15:41:18.911Z,32.32
2022-09-02T15:43:47.065Z,32.43
2022-09-02T15:46:24.622Z,31.28
2022-09-02T15:48:52.319Z,30.71
2022-09-02T15:51:20.956Z,31.32
2022-09-02T15:53:49.388Z,31.05
2022-09-02T15:56:20.680Z,31.93
2022-09-02T15:58:47.421Z,32.93
2022-09-02T16:01:14.564Z,32.62
2022-09-02T16:03:41.479Z,32.71
2022-09-02T16:06:11.292Z,33.83
2022-09-02T16:08:38.120Z,32.31
2022-09-02T16:11:07.417Z,32.99
2022-09-02T16:13:35.730Z,33.68
2022-09-02T16:16:04.779Z,33.43
2022-09-02T16:18:32.050Z,35.80
2022-09-02T16:20:58.895Z,40.49
2022-09-02T16:23:25.759Z,35.99
2022-09-02T16:26:09.878Z,33.14
2022-09-02T16:28:37.958Z,36.70
2022-09-02T16:31:05.991Z,33.84
2022-09-02T16:33:33.892Z,34.07
2022-09-02T16:36:00.623Z,33.60
2022-09-02T16:38:27.594Z,33.88
2022-09-02T16:40:55.891Z,33.16
2022-09-02T16:43:23.328Z,33.28
2022-09-02T16:45:51.933Z,34.00
2022-09-02T16:48:23.768Z,34.86
2022-09-02T16:50:52.513Z,34.03
2022-09-02T16:53:19.251Z,34.39
2022-09-02T16:55:47.625Z,34.25
2022-09-02T16:58:14.546Z,35.32
2022-09-02T17:00:41.950Z,36.06
2022-09-02T17:03:12.652Z,35.50
2022-09-02T17:05:39.785Z,35.14
2022-09-02T17:08:07.226Z,36.06
2022-09-02T17:10:35.483Z,36.59
2022-09-02T17:13:02.813Z,37.60
2022-09-02T17:15:30.857Z,36.98
2022-09-02T17:17:57.741Z,37.72
2022-09-02T17:20:24.487Z,36.16
2022-09-02T17:22:51.665Z,37.09
2022-09-02T17:25:18.799Z,36.42
2022-09-02T17:27:45.549Z,37.85
2022-09-02T17:30:12.548Z,37.38
2022-09-02T17:32:39.997Z,36.70
2022-09-02T17:35:08.682Z,37.91
2022-09-02T17:37:37.784Z,38.34
2022-09-02T17:40:29.269Z,38.27
2022-09-02T17:42:56.608Z,39.27
2022-09-02T17:45:23.618Z,39.44
2022-09-02T17:47:50.400Z,38.96
2022-09-02T17:50:18.101Z,39.71
2022-09-02T17:52:45.776Z,40.02
2022-09-02T17:55:13.062Z,39.76
2022-09-02T17:57:59.942Z,40.17
2022-09-02T18:00:28.885Z,40.22
2022-09-02T18:03:20.281Z,41.00
2022-09-02T18:05:55.464Z,38.07
2022-09-02T18:08:36.293Z,37.56
2022-09-02T18:11:05.401Z,38.55
2022-09-02T18:13:41.349Z,38.73
2022-09-02T18:16:29.553Z,37.30
2022-09-02T18:19:22.812Z,37.70
2022-09-02T18:21:52.461Z,38.30
2022-09-02T18:24:19.420Z,38.15
2022-09-02T18:27:04.408Z,37.98
2022-09-02T18:29:46.473Z,37.58
2022-09-02T18:32:36.306Z,38.44
2022-09-02T18:35:26.222Z,38.63
2022-09-02T18:38:31.800Z,39.22
2022-09-02T18:41:23.710Z,38.06
2022-09-02T18:44:10.214Z,38.54
2022-09-02T18:46:48.994Z,40.03
2022-09-02T18:49:15.878Z,38.05
2022-09-02T18:51:43.964Z,38.68
2022-09-02T18:54:25.943Z,38.39
2022-09-02T18:57:06.300Z,39.48
2022-09-02T18:59:45.505Z,39.31
2022-09-02T19:02:31.318Z,39.84
2022-09-02T19:04:59.366Z,40.18
2022-09-02T19:07:47.447Z,40.22
2022-09-02T19:10:14.325Z,39.48
2022-09-02T19:12:42.465Z,39.53
2022-09-02T19:15:13.051Z,40.21
2022-09-02T19:17:40.876Z,41.08
2022-09-02T19:20:08.729Z,41.00
2022-09-02T19:22:44.946Z,41.05
2022-09-02T19:25:14.992Z,41.38
2022-09-02T19:27:43.978Z,41.26
2022-09-02T19:30:15.903Z,41.21
2022-09-02T19:32:44.299Z,41.12
2022-09-02T19:35:16.798Z,40.26
2022-09-02T19:37:48.320Z,41.73
2022-09-02T19:40:23.615Z,41.57
2022-09-02T19:42:53.712Z,42.07
2022-09-02T19:45:21.899Z,42.14
2022-09-02T19:48:06.589Z,42.31
2022-09-02T19:50:37.378Z,43.24
2022-09-02T19:53:04.341Z,42.67
2022-09-02T19:55:33.792Z,42.87
2022-09-02T19:58:01.149Z,42.41
2022-09-02T20:00:28.171Z,43.27
2022-09-02T20:02:55.766Z,42.41
2022-09-02T20:05:25.343Z,43.19
2022-09-02T20:07:53.904Z,42.95
2022-09-02T20:10:27.702Z,43.43
2022-09-02T20:12:55.433Z,43.81
2022-09-02T20:15:22.162Z,43.29
2022-09-02T20:17:49.695Z,43.95
2022-09-02T20:20:19.175Z,43.91
2022-09-02T20:22:54.767Z,44.25
2022-09-02T20:25:27.302Z,44.44
2022-09-02T20:28:09.022Z,44.30
2022-09-02T20:30:38.875Z,44.72
2022-09-02T20:33:29.836Z,44.70
2022-09-02T20:36:08.453Z,45.46
2022-09-02T20:38:41.644Z,45.86
2022-09-02T20:41:27.213Z,46.03
2022-09-02T20:44:23.689Z,46.45
2022-09-02T20:47:12.055Z,46.64
2022-09-02T20:50:01.409Z,46.65
2022-09-02T20:52:50.022Z,47.19
2022-09-02T20:55:38.774Z,47.03
2022-09-02T20:58:17.727Z,47.81
2022-09-02T21:01:02.952Z,47.27
2022-09-02T21:03:41.190Z,47.40
2022-09-02T21:06:10.850Z,47.92
2022-09-02T21:08:47.998Z,47.78
2022-09-02T21:11:16.058Z,47.99
2022-09-02T21:13:59.069Z,48.34
2022-09-02T21:16:39.733Z,48.11
2022-09-02T21:19:06.446Z,48.57
2022-09-02T21:21:39.304Z,48.86
2022-09-02T21:24:28.304Z,49.28
2022-09-02T21:27:16.856Z,49.54
2022-09-02T21:29:59.037Z,49.55
2022-09-02T21:32:44.498Z,49.84
2022-09-02T21:35:14.742Z,50.26
2022-09-02T21:37:43.852Z,49.98
2022-09-02T21:40:17.432Z,50.28
2022-09-02T21:42:50.087Z,50.62
2022-09-02T21:46:05.749Z,50.45
2022-09-02T21:48:35.179Z,50.89
2022-09-02T21:51:05.156Z,51.01
2022-09-02T21:54:04.550Z,51.36
2022-09-02T21:56:38.982Z,51.30
2022-09-02T21:59:27.880Z,51.28
2022-09-02T22:02:00.435Z,51.40
2022-09-02T22:04:50.364Z,51.74
2022-09-02T22:07:23.789Z,51.80
2022-09-02T22:09:58.515Z,51.98
2022-09-02T22:12:26.805Z,52.11
2022-09-02T22:15:07.942Z,51.95
2022-09-02T22:17:51.810Z,52.10
2022-09-02T22:20:22.229Z,52.57
2022-09-02T22:22:54.651Z,52.61
2022-09-02T22:25:23.052Z,52.53
2022-09-02T22:27:55.698Z,53.03
2022-09-02T22:30:23.101Z,53.12
2022-09-02T22:32:54.153Z,53.24
2022-09-02T22:35:31.621Z,53.32
2022-09-02T22:38:26.552Z,53.70
2022-09-02T22:41:28.072Z,53.40
2022-09-02T22:44:20.305Z,53.28
2022-09-02T22:47:27.761Z,53.96
2022-09-02T22:50:16.141Z,54.21
2022-09-02T22:52:47.291Z,53.93
2022-09-02T22:55:26.950Z,54.13
2022-09-02T22:58:13.174Z,53.88
2022-09-02T23:00:47.110Z,54.11
2022-09-02T23:03:21.542Z,54.15
2022-09-02T23:06:08.428Z,53.94
2022-09-02T23:08:38.042Z,54.55
2022-09-02T23:11:11.810Z,54.68
2022-09-02T23:14:16.429Z,54.68
2022-09-02T23:17:09.188Z,54.42
2022-09-02T23:19:44.365Z,54.63
2022-09-02T23:22:34.166Z,54.55
2022-09-02T23:25:30.312Z,54.81
2022-09-02T23:28:05.147Z,54.86
2022-09-02T23:30:32.011Z,55.37
2022-09-02T23:33:00.737Z,54.89
2022-09-02T23:35:43.726Z,54.62
2022-09-02T23:38:13.402Z,54.80
2022-09-02T23:40:46.047Z,55.25
2022-09-02T23:43:18.102Z,55.23
2022-09-02T23:45:46.566Z,54.91
2022-09-02T23:48:50.414Z,54.69
2022-09-02T23:51:32.390Z,54.83
2022-09-02T23:54:29.909Z,54.85
2022-09-02T23:57:18.349Z,55.05
